Tiempo atmosférico en la estación meteorológica de Alcazar De San Juan, Ciudad Real (664 m.)



Fecha
DESCASC
Temp. máxima en grados centígrados (hora)
DESCASC
Temp. mínima en grados centígrados (hora)
DESCASC
Temp. media en grados centígrados
DESCASC
Racha de viento máxima en m/sg (hora)
DESCASC
Velocidad máxima media en intervalos de 10 minutos(hora)
DESCASC
Precipitaciones diarias en mm
DESCASC
Precipitaciones de 00:00 a 06:00 en mm
DESCASC
Precipitaciones de 06:00 a 12:00 en mm
DESCASC
Precipitaciones de 12:00 a 18:00 en mm
DESCASC
Precipitaciones de 18:00 a 24:00 en mm
DESCASC
19-01-2020 8.2 (00:00) 2.8 (23:40) 5.5 12.78 (16:10) 5.28 (19:20) 7.2 2 0.2 4.4 0.6
18-01-2020 10.3 (13:20) 5.4 (07:40) 7.9 8.61 (20:50) 3.33 (17:00) 6.8 0 1.8 0 5
17-01-2020 13.3 (15:30) 4.8 (09:10) 9.1 6.67 (12:20) 2.5 (14:20) 0 0 0 0 0
16-01-2020 14.5 (15:20) 4.7 (00:00) 9.6 6.11 (16:20) 2.22 (14:20) 0 0 0 0 0
15-01-2020 12.8 (15:50) 1.7 (00:00) 7.3 6.39 (16:10) 2.78 (13:00) 0 0 0 0 0
14-01-2020 9.7 (15:50) -1.4 (-00:0) 4.1 5.28 (16:20) 2.22 (15:10) 0 0 0 0 0
13-01-2020 9.7 (16:20) -2.8 (-00:0) 3.4 4.72 (15:00) 2.22 (13:50) 0 0 0 0 0
12-01-2020 10.2 (15:50) -2.6 (-00:0) 3.8 3.33 (15:40) 1.39 (15:30) 0 0 0 0 0
11-01-2020 10 (16:00) -1.6 (-00:0) 4.2 3.89 (00:20) 1.67 (00:20) 0 0 0 0 0
10-01-2020 10.5 (15:40) 1.9 (00:00) 6.2 8.61 (15:40) 4.17 (14:20) 0 0 0 0 0
09-01-2020 9.3 (16:20) 1.7 (00:00) 5.5 5.28 (02:00) 1.67 (17:00) 0 0 0 0 0
08-01-2020 12.4 (16:30) -0.9 (-00:0) 5.7 5 (22:20) 1.67 (20:50) 0 0 0 0 0
07-01-2020 13.2 (16:20) -0.9 (-00:0) 6.1 2.5 (14:30) 1.39 (16:10) 0 0 0 0 0
06-01-2020 10.2 (16:40) -1.3 (-00:0) 4.4 2.5 (13:50) 1.11 (13:50) 0 0 0 0 0
05-01-2020 10.6 (16:40) -1.3 (-00:0) 4.7 3.06 (13:10) 1.39 (13:10) 0 0 0 0 0
04-01-2020 10.4 (17:10) -0.1 (00:00) 5.1 4.72 (15:10) 2.5 (15:30) 0 0 0 0 0
03-01-2020 7 (17:10) -1 (-00:0) 3 4.17 (21:30) 2.22 (21:40) 0.2 0 0.2 0 0
02-01-2020 8.3 (16:40) -2.2 (-00:0) 3.1 2.5 (13:30) 1.67 (13:30) 0 0 0 0 0
01-01-2020 5 (16:00) 0.6 (00:00) 2.8 2.22 (21:40) 1.11 (05:20) 0.4 0.2 0 0 0.2
31-12-2019 6 (16:50) 0.6 (00:00) 3.3 3.33 (11:00) 1.39 (03:40) 0.2 0 0.2 0 0
30-12-2019 -- (--) -- (--) -- -- (--) -- (--) -- 0 0 0 --
29-12-2019 9.4 (16:20) 1 (00:00) 5.2 4.44 (00:50) 1.94 (12:50) 0 0 0 0 0
28-12-2019 13.3 (15:40) 0.8 (00:00) 7.1 3.61 (15:20) 1.67 (15:20) 0 0 0 0 0
27-12-2019 14.7 (15:50) 2.1 (00:00) 8.4 4.72 (11:30) 1.67 (15:50) 0 0 0 0 0
26-12-2019 13.8 (16:40) 2.8 (00:00) 8.3 2.78 (13:30) 1.39 (13:50) 0 0 0 0 0
25-12-2019 14.1 (15:50) 2.8 (00:00) 8.5 2.22 (16:00) 1.11 (14:50) 0 0 0 0 0
24-12-2019 15.3 (16:10) 3.5 (00:00) 9.4 2.5 (12:20) 1.11 (11:50) 0 0 0 0 0
23-12-2019 13.3 (15:10) 5.3 (00:00) 9.3 5 (10:50) 2.5 (15:20) 0 0 0 0 0
22-12-2019 13.9 (14:50) 9.4 (00:00) 11.6 12.22 (00:10) 4.72 (01:10) 0 0 0 0 0

Gráficas

Temp. máximas Temp. mínimas Temp. medias Precipitaciones Rachas de viento máximas Velocidades máximas media en intervalos de 10 minutos

Datos horarios

Fecha y hora oficial Temperatura (ºC) Velocidad del viento (km/h) Dirección del viento Racha (km/h) Dirección de racha Precipitación (mm) Presión (hPa) Tendencia (hPa) Humedad (%)
2020-01-20 23:00:00 3.5 5 Norte 14 Norte 0 -- -- 74
2020-01-20 22:00:00 3.7 5 Norte 24 Norte 0 -- -- 74
2020-01-20 21:00:00 3.8 8 Norte 22 Norte 0 -- -- 73
2020-01-20 20:00:00 4.2 12 Nordeste 23 Norte 0 -- -- 70
2020-01-20 19:00:00 4.9 8 Norte 22 Nordeste 0 -- -- 71
2020-01-20 18:00:00 6.7 8 Nordeste 17 Nordeste 0 -- -- 68
2020-01-20 17:00:00 6.6 4 Este 26 Nordeste 0 -- -- 69
2020-01-20 16:00:00 6 6 Norte 23 Nordeste 0 -- -- 69
2020-01-20 15:00:00 6.3 10 Nordeste 26 Nordeste 0 -- -- 66
2020-01-20 14:00:00 4.7 10 Nordeste 30 Nordeste 0 -- -- 69
2020-01-20 13:00:00 3.6 9 Norte 25 Norte 0 -- -- 72
2020-01-20 12:00:00 2.3 8 Norte 21 Norte 0.2 -- -- 71
2020-01-20 11:00:00 0.7 10 Norte 33 Norte 0 -- -- 86
2020-01-20 10:00:00 0.1 13 Norte 33 Nordeste 0 -- -- 87
2020-01-20 09:00:00 1.1 14 Nordeste 35 Nordeste 0 -- -- 73
2020-01-20 08:00:00 1.7 10 Norte 27 Nordeste 0 -- -- 63
2020-01-20 07:00:00 1.6 9 Norte 24 Norte 0 -- -- 64
2020-01-20 06:00:00 1.6 10 Norte 33 Nordeste 0 -- -- 65
2020-01-20 05:00:00 1.7 10 Norte 30 Nordeste 0 -- -- 65
2020-01-20 04:00:00 1.8 12 Norte 32 Nordeste 0 -- -- 65
2020-01-20 03:00:00 2 15 Nordeste 34 Nordeste 0 -- -- 65
2020-01-20 02:00:00 2.2 14 Norte 33 Norte 0 -- -- 65
2020-01-20 01:00:00 2.4 10 Norte 27 Nordeste 0 -- -- 69
2020-01-20 00:00:00 2.8 12 Norte 29 Norte 0 -- -- 67
2020-01-19 23:00:00 3.1 11 Norte 30 Norte 0 -- -- 65
2020-01-19 22:00:00 3.1 10 Norte 33 Nordeste 0.2 -- -- 76
2020-01-19 21:00:00 3.9 12 Nordeste 34 Este 0 -- -- 77
2020-01-19 20:00:00 5 12 Este 40 Nordeste 0.2 -- -- 68
2020-01-19 19:00:00 5.5 13 Nordeste 36 Este 0.2 -- -- 69
2020-01-19 18:00:00 5 6 Norte 31 Norte 1.2 -- -- 82
2020-01-19 17:00:00 5.2 13 Norte 46 Nordeste 2 -- -- 80
2020-01-19 16:00:00 5.8 17 Nordeste 40 Nordeste 1 -- -- 78
2020-01-19 15:00:00 6.4 11 Norte 37 Norte 0.2 -- -- 78
2020-01-19 14:00:00 7.1 16 Norte 33 Norte 0 -- -- 73
2020-01-19 13:00:00 6.9 12 Norte 33 Nordeste 0 -- -- 75
2020-01-19 12:00:00 6.3 14 Norte 29 Norte 0 -- -- 85
2020-01-19 11:00:00 5.5 8 Noroeste 30 Noroeste 0.2 -- -- 89
2020-01-19 10:00:00 4.7 6 Noroeste 18 Norte 0 -- -- 93
2020-01-19 09:00:00 3.8 5 Noroeste 18 Noroeste 0 -- -- 94
2020-01-19 08:00:00 3.9 3 Norte 17 Norte 0 -- -- 92
2020-01-19 07:00:00 4.4 5 Norte 16 Noroeste 0 -- -- 91
2020-01-19 06:00:00 4.9 5 Noroeste 18 Norte 0 -- -- 93
2020-01-19 05:00:00 5.4 5 Noroeste 16 Norte 0 -- -- 92
2020-01-19 04:00:00 5.7 4 Norte 17 Noroeste 0 -- -- 93
2020-01-19 03:00:00 6 4 Noroeste 23 Noroeste 1.2 -- -- 92
2020-01-19 02:00:00 6.6 11 Noroeste 30 Norte 0.2 -- -- 92
2020-01-19 01:00:00 8 3 Oeste 23 Oeste 0.6 -- -- 92
2020-01-19 00:00:00 8.2 9 Oeste 30 Oeste 4 -- -- 91
2020-01-18 23:00:00 9.6 8 Sudoeste 18 Sur 0.8 -- -- 97
2020-01-18 22:00:00 9.7 6 Sudoeste 23 Oeste 0 -- -- 97
2020-01-18 21:00:00 9.6 9 Oeste 31 Oeste 0 -- -- 97
2020-01-18 20:00:00 9.6 10 Sudoeste 30 Sudoeste 0.2 -- -- 97
2020-01-18 19:00:00 9.1 6 Sudoeste 21 Sudoeste 0 -- -- 97
2020-01-18 18:00:00 9 7 Sudoeste 26 Sudoeste 0 -- -- 96
2020-01-18 17:00:00 9.3 12 Sudoeste 27 Sur 0 -- -- 94
2020-01-18 16:00:00 9.6 10 Sudoeste 26 Sudoeste 0 -- -- 91
2020-01-18 15:00:00 10.3 8 Sudoeste 28 Sudoeste 0 -- -- 88
2020-01-18 14:00:00 10.1 6 Sudoeste 21 Sudoeste 0 -- -- 87
2020-01-18 13:00:00 9.9 9 Sudoeste 23 Sudoeste 0 -- -- 90
2020-01-18 12:00:00 7.8 6 Sudoeste 15 Sudoeste 0 -- -- 96
2020-01-18 11:00:00 6.5 5 Sur 13 Sur 0.2 -- -- 97
2020-01-18 10:00:00 5.5 3 Sur 13 Sudeste 0 -- -- 95
2020-01-18 09:00:00 5.5 5 Sur 8 Sur 1 -- -- 94
2020-01-18 08:00:00 5.7 3 Sudeste 8 Sur 0.6 -- -- 92
2020-01-18 07:00:00 5.8 0 Calma 6 Nordeste 0 -- -- 88
2020-01-18 06:00:00 5.7 0 Calma 6 Este 0 -- -- 88
2020-01-18 05:00:00 5.7 2 Sur 6 Sur 0 -- -- 88
2020-01-18 04:00:00 5.7 0 Calma 6 Sur 0 -- -- 89
2020-01-18 03:00:00 5.6 2 Sudoeste 6 Sudoeste 0 -- -- 88
2020-01-18 02:00:00 5.8 3 Sur 8 Sudeste 0 -- -- 87
2020-01-18 01:00:00 6.4 3 Sur 6 Sur 0 -- -- 84
2020-01-18 00:00:00 6.9 3 Sur 5 Sudoeste 0 -- -- 83
2020-01-17 23:00:00 7.4 0 Calma 4 Oeste 0 -- -- 82
2020-01-17 22:00:00 7.6 0 Calma 4 Oeste 0 -- -- 81
2020-01-17 21:00:00 8.2 0 Calma 2 Sudoeste 0 -- -- 77
2020-01-17 20:00:00 8.9 0 Calma 6 Norte 0 -- -- 74
2020-01-17 19:00:00 10 2 Noroeste 4 Oeste 0 -- -- 69
2020-01-17 18:00:00 11.6 0 Calma 12 Oeste 0 -- -- 63
2020-01-17 17:00:00 13.1 6 Oeste 20 Sudoeste 0 -- -- 57
2020-01-17 16:00:00 13 5 Oeste 22 Sudoeste 0 -- -- 56
2020-01-17 15:00:00 13 9 Oeste 22 Oeste 0 -- -- 58
2020-01-17 14:00:00 12.8 9 Oeste 22 Sudoeste 0 -- -- 59
2020-01-17 13:00:00 12.4 7 Oeste 24 Oeste 0 -- -- 60
2020-01-17 12:00:00 11.6 8 Oeste 17 Oeste 0 -- -- 68
2020-01-17 11:00:00 10 3 Oeste 12 Sur 0 -- -- 79
2020-01-17 10:00:00 6.3 3 Sudoeste 8 Sur 0 -- -- 89
2020-01-17 09:00:00 4.9 2 Sudoeste 8 Sudoeste 0 -- -- 86
2020-01-17 08:00:00 5.5 4 Sudoeste 9 Sudoeste 0 -- -- 82
2020-01-17 07:00:00 5.5 2 Sudoeste 9 Sur 0 -- -- 75
2020-01-17 06:00:00 5.5 3 Sudoeste 11 Sudoeste 0 -- -- 73
2020-01-17 05:00:00 6.5 7 Sur 16 Sudoeste 0 -- -- 67
2020-01-17 04:00:00 6.4 5 Sur 15 Sur 0 -- -- 66
2020-01-17 03:00:00 6.2 5 Sur 8 Sudoeste 0 -- -- 66
2020-01-17 02:00:00 6.4 5 Sudoeste 14 Oeste 0 -- -- 66
2020-01-17 01:00:00 5.9 3 Sur 15 Sur 0 -- -- 71
2020-01-17 00:00:00 5.8 5 Sur 11 Sur 0 -- -- 70
2020-01-16 23:00:00 6.4 4 Sur 10 Sur 0 -- -- 68
2020-01-16 22:00:00 7.3 3 Sur 8 Sur 0 -- -- 67
2020-01-16 21:00:00 8 3 Sur 8 Sudoeste 0 -- -- 62
2020-01-16 20:00:00 9.1 2 Sur 7 Sur 0 -- -- 59
2020-01-16 19:00:00 10.7 2 Sur 5 Sudoeste 0 -- -- 56
2020-01-16 18:00:00 12.7 2 Sudoeste 14 Oeste 0 -- -- 52
2020-01-16 17:00:00 14 7 Sudoeste 22 Oeste 0 -- -- 45
2020-01-16 16:00:00 14.5 8 Sudoeste 20 Sudoeste 0 -- -- 43
2020-01-16 15:00:00 14.4 8 Sudoeste 21 Sur 0 -- -- 42
2020-01-16 14:00:00 13.5 8 Sudoeste 20 Sudoeste 0 -- -- 52
2020-01-16 13:00:00 11.7 8 Sur 14 Sur 0 -- -- 67
2020-01-16 12:00:00 11.4 5 Sur 12 Sur 0 -- -- 66
2020-01-16 11:00:00 9 3 Sudeste 7 Sudeste 0 -- -- 71
2020-01-16 10:00:00 6 3 Sudeste 7 Sudeste 0 -- -- 81
2020-01-16 09:00:00 4.8 2 Sudeste 6 Sudeste 0 -- -- 83
2020-01-16 08:00:00 5.3 3 Sudeste 6 Sudeste 0 -- -- 82
2020-01-16 07:00:00 5.8 3 Sudeste 7 Sur 0 -- -- 82
2020-01-16 06:00:00 5.6 0 Calma 6 Sudeste 0 -- -- 82
2020-01-16 05:00:00 6 2 Sudeste 6 Sudeste 0 -- -- 81
2020-01-16 04:00:00 6.9 2 Sur 6 Sudoeste 0 -- -- 79
2020-01-16 03:00:00 7.5 2 Sur 5 Sur 0 -- -- 80
2020-01-16 02:00:00 7.7 2 Sur 7 Sudoeste 0 -- -- 81
2020-01-16 01:00:00 8.8 2 Sur 5 Sur 0 -- -- 80
2020-01-16 00:00:00 9.1 0 Calma 15 Sur 0 -- -- 79
2020-01-15 23:00:00 9.5 0 Calma 4 Sur 0 -- -- 78
2020-01-15 22:00:00 9.8 0 Calma 6 Oeste 0 -- -- 76
2020-01-15 21:00:00 9.9 2 Oeste 5 Oeste 0 -- -- 75
2020-01-15 20:00:00 10.2 0 Calma 6 Sudoeste 0 -- -- 74
2020-01-15 19:00:00 10.8 2 Oeste 14 Sudoeste 0 -- -- 71
2020-01-15 18:00:00 11.8 3 Sudoeste 15 Oeste 0 -- -- 68
2020-01-15 17:00:00 12.4 6 Sudoeste 23 Oeste 0 -- -- 63
2020-01-15 16:00:00 12.7 8 Sudoeste 22 Sudoeste 0 -- -- 61
2020-01-15 15:00:00 12.2 8 Sudoeste 21 Sudoeste 0 -- -- 62
2020-01-15 14:00:00 11.2 9 Sudoeste 22 Sur 0 -- -- 63
2020-01-15 13:00:00 10.2 10 Sur 18 Sudoeste 0 -- -- 69
2020-01-15 12:00:00 9.4 7 Sudoeste 18 Sur 0 -- -- 74
2020-01-15 11:00:00 5.2 5 Sur 10 Sudoeste 0 -- -- 84
2020-01-15 10:00:00 2.8 4 Sur 14 Sur 0 -- -- 91
2020-01-15 09:00:00 1.7 3 Sudeste 7 Sur 0 -- -- 92
2020-01-15 08:00:00 1.9 0 Calma 10 Sur 0 -- -- 92
2020-01-15 07:00:00 1.8 2 Sur 6 Sur 0 -- -- 92
2020-01-15 06:00:00 2.1 0 Calma 8 Sur 0 -- -- 92
2020-01-15 05:00:00 2.3 0 Calma 4 Sur 0 -- -- 91
2020-01-15 04:00:00 2.7 3 Sur 9 Sur 0 -- -- 90
2020-01-15 03:00:00 2.6 5 Sur 11 Sur 0 -- -- 91
2020-01-15 02:00:00 2.1 4 Sur 8 Sur 0 -- -- 90
2020-01-15 01:00:00 2.2 3 Sur 8 Sur 0 -- -- 89
2020-01-15 00:00:00 2.5 3 Sur 8 Sur 0 -- -- 86
2020-01-14 23:00:00 3.2 3 Sur 6 Sur 0 -- -- 85
2020-01-14 22:00:00 3.7 0 Calma 7 Sudoeste 0 -- -- 84
2020-01-14 21:00:00 4.4 3 Sur 6 Sur 0 -- -- 81
2020-01-14 20:00:00 5 0 Calma 4 Sur 0 -- -- 78
2020-01-14 19:00:00 6.1 0 Calma 10 Sudoeste 0 -- -- 75
2020-01-14 18:00:00 7.8 4 Sur 14 Sudoeste 0 -- -- 70
2020-01-14 17:00:00 9.3 5 Sudoeste 19 Sudoeste 0 -- -- 65
2020-01-14 16:00:00 9.7 6 Sudoeste 18 Sudoeste 0 -- -- 65
2020-01-14 15:00:00 9.5 6 Sudoeste 18 Oeste 0 -- -- 65
2020-01-14 14:00:00 8.6 7 Sudoeste 17 Sudoeste 0 -- -- 69
2020-01-14 13:00:00 7.3 5 Sudoeste 13 Sudoeste 0 -- -- 76
2020-01-14 12:00:00 5.8 6 Sur 12 Sur 0 -- -- 76
2020-01-14 11:00:00 3.7 4 Sur 8 Sur 0 -- -- 83
2020-01-14 10:00:00 0.5 3 Sur 6 Sudeste 0 -- -- 95
2020-01-14 09:00:00 -1.4 0 Calma 4 Este 0 -- -- 94
2020-01-14 08:00:00 -1.3 0 Calma 4 Sudeste 0 -- -- 94
2020-01-14 07:00:00 -1.3 0 Calma 3 Sudeste 0 -- -- 93
2020-01-14 06:00:00 -1.1 0 Calma 4 Sur 0 -- -- 93
2020-01-14 05:00:00 -1.2 0 Calma 2 Sur 0 -- -- 91
2020-01-14 04:00:00 -0.8 0 Calma 3 Nordeste 0 -- -- 91
2020-01-14 03:00:00 -0.3 0 Calma 2 Sur 0 -- -- 90
2020-01-14 02:00:00 0.1 0 Calma 3 Sur 0 -- -- 89
2020-01-14 01:00:00 0.8 0 Calma 2 Sudeste 0 -- -- 87
2020-01-14 00:00:00 1.4 0 Calma 5 Norte 0 -- -- 85
2020-01-13 23:00:00 2.2 0 Calma 3 Sudoeste 0 -- -- 82
2020-01-13 22:00:00 3.3 0 Calma 6 Sur 0 -- -- 79
2020-01-13 21:00:00 4 0 Calma 4 Sudoeste 0 -- -- 77
2020-01-13 20:00:00 4.7 0 Calma 5 Sur 0 -- -- 74
2020-01-13 19:00:00 6.5 0 Calma 10 Sur 0 -- -- 70
2020-01-13 18:00:00 8.6 5 Sur 10 Sur 0 -- -- 65
2020-01-13 17:00:00 9.5 4 Sur 9 Oeste 0 -- -- 61
2020-01-13 16:00:00 9.5 4 Sudoeste 13 Oeste 0 -- -- 59
2020-01-13 15:00:00 8.9 6 Sudoeste 17 Sur 0 -- -- 59
2020-01-13 14:00:00 7.5 6 Sudoeste 17 Sur 0 -- -- 64
2020-01-13 13:00:00 5.5 4 Sur 10 Sudoeste 0 -- -- 71
2020-01-13 12:00:00 4.1 4 Sur 9 Sur 0 -- -- 74
2020-01-13 11:00:00 1.9 4 Sur 8 Sudeste 0 -- -- 77
2020-01-13 10:00:00 -0.8 3 Sudeste 8 Sur 0 -- -- 86
2020-01-13 09:00:00 -2.4 0 Calma 3 Sur 0 -- -- 90
2020-01-13 08:00:00 -2.7 2 Sur 5 Sudeste 0 -- -- 90
2020-01-13 07:00:00 -2.7 0 Calma 3 Nordeste 0 -- -- 89
2020-01-13 06:00:00 -2.3 0 Calma 0 Calma 0 -- -- 88
2020-01-13 05:00:00 -1.6 0 Calma 2 Sudoeste 0 -- -- 87
2020-01-13 04:00:00 -1 0 Calma 5 Sudeste 0 -- -- 85
2020-01-13 03:00:00 -0.9 0 Calma 4 Este 0 -- -- 88
2020-01-13 02:00:00 -0.3 0 Calma 0 Calma 0 -- -- 86
2020-01-13 01:00:00 0.5 0 Calma 2 Nordeste 0 -- -- 83
2020-01-13 00:00:00 1.2 0 Calma 3 Norte 0 -- -- 81
2020-01-12 23:00:00 1.9 0 Calma 5 Noroeste 0 -- -- 80
2020-01-12 22:00:00 3 0 Calma 2 Nordeste 0 -- -- 73
2020-01-12 21:00:00 4.2 0 Calma 5 Nordeste 0 -- -- 69
2020-01-12 20:00:00 5.6 3 Nordeste 8 Nordeste 0 -- -- 65
2020-01-12 19:00:00 7.2 3 Norte 7 Norte 0 -- -- 63
2020-01-12 18:00:00 8.6 0 Calma 4 Noroeste 0 -- -- 57
2020-01-12 17:00:00 10 3 Norte 10 Norte 0 -- -- 51
2020-01-12 16:00:00 10.1 4 Oeste 12 Oeste 0 -- -- 49
2020-01-12 15:00:00 9.4 3 Noroeste 8 Noroeste 0 -- -- 56
2020-01-12 14:00:00 8.2 3 Sur 9 Sur 0 -- -- 64
2020-01-12 13:00:00 6.3 3 Oeste 6 Sur 0 -- -- 72
2020-01-12 12:00:00 5.3 2 Sudoeste 6 Sudoeste 0 -- -- 77
2020-01-12 11:00:00 3 0 Calma 4 Sur 0 -- -- 82
2020-01-12 10:00:00 -0.4 2 Sur 4 Sur 0 -- -- 96
2020-01-12 09:00:00 -2.6 0 Calma 0 Calma 0 -- -- 94
2020-01-12 08:00:00 -2.5 0 Calma 3 Sur 0 -- -- 93
2020-01-12 07:00:00 -2 0 Calma 2 Sudoeste 0 -- -- 92
2020-01-12 06:00:00 -1.5 0 Calma 2 Sur 0 -- -- 92
2020-01-12 05:00:00 -1.5 0 Calma 0 Calma 0 -- -- 92
2020-01-12 04:00:00 -0.9 0 Calma 0 Calma 0 -- -- 91
2020-01-12 03:00:00 -0.5 0 Calma 0 Calma 0 -- -- 91
2020-01-12 02:00:00 -0.2 0 Calma 6 Sur 0 -- -- 88
2020-01-12 01:00:00 1.4 0 Calma 3 Nordeste 0 -- -- 86
2020-01-12 00:00:00 1.8 2 Nordeste 6 Nordeste 0 -- -- 85
2020-01-11 23:00:00 2.6 0 Calma 5 Norte 0 -- -- 81
2020-01-11 22:00:00 3.5 2 Noroeste 5 Noroeste 0 -- -- 78
2020-01-11 21:00:00 4.7 0 Calma 4 Nordeste 0 -- -- 74
2020-01-11 20:00:00 6 0 Calma 5 Norte 0 -- -- 69
2020-01-11 19:00:00 7.2 0 Calma 4 Nordeste 0 -- -- 65
2020-01-11 18:00:00 9.2 3 Norte 7 Norte 0 -- -- 57
2020-01-11 17:00:00 9.9 3 Norte 8 Norte 0 -- -- 53
2020-01-11 16:00:00 10 4 Norte 9 Noroeste 0 -- -- 54
2020-01-11 15:00:00 9.4 3 Noroeste 10 Norte 0 -- -- 57
2020-01-11 14:00:00 8.1 3 Noroeste 9 Noroeste 0 -- -- 62
2020-01-11 13:00:00 6.8 3 Norte 6 Norte 0 -- -- 69
2020-01-11 12:00:00 5.6 0 Calma 6 Nordeste 0 -- -- 74
2020-01-11 11:00:00 2.5 3 Norte 8 Nordeste 0 -- -- 83
2020-01-11 10:00:00 0 4 Norte 9 Norte 0 -- -- 90
2020-01-11 09:00:00 -1.6 2 Norte 7 Norte 0 -- -- 90
2020-01-11 08:00:00 -1.2 3 Norte 6 Norte 0 -- -- 90
2020-01-11 07:00:00 -0.9 3 Norte 6 Noroeste 0 -- -- 89
2020-01-11 06:00:00 -0.8 0 Calma 6 Noroeste 0 -- -- 89
2020-01-11 05:00:00 -0.4 0 Calma 8 Noroeste 0 -- -- 88
2020-01-11 04:00:00 -0.1 2 Noroeste 5 Oeste 0 -- -- 86
2020-01-11 03:00:00 0.9 0 Calma 9 Norte 0 -- -- 82
2020-01-11 02:00:00 1.5 3 Norte 9 Norte 0 -- -- 81
2020-01-11 01:00:00 2.6 5 Norte 14 Norte 0 -- -- 77
2020-01-11 00:00:00 3.9 5 Norte 15 Nordeste 0 -- -- 74
2020-01-10 23:00:00 4 7 Nordeste 15 Nordeste 0 -- -- 72
2020-01-10 22:00:00 5.1 5 Norte 19 Norte 0 -- -- 68
2020-01-10 21:00:00 6.3 8 Nordeste 19 Nordeste 0 -- -- 63
2020-01-10 20:00:00 6.4 4 Nordeste 13 Norte 0 -- -- 63
2020-01-10 19:00:00 7.4 4 Norte 19 Nordeste 0 -- -- 61
2020-01-10 18:00:00 9.4 8 Norte 26 Norte 0 -- -- 53
2020-01-10 17:00:00 10.5 13 Nordeste 31 Norte 0 -- -- 48
2020-01-10 16:00:00 10.5 10 Norte 31 Nordeste 0 -- -- 48
2020-01-10 15:00:00 10.2 12 Norte 30 Norte 0 -- -- 53
2020-01-10 14:00:00 10 12 Norte 30 Nordeste 0 -- -- 54
2020-01-10 13:00:00 8.9 10 Norte 28 Norte 0 -- -- 64
2020-01-10 12:00:00 7.7 9 Norte 22 Norte 0 -- -- 72
2020-01-10 11:00:00 6.1 8 Norte 18 Noroeste 0 -- -- 79
2020-01-10 10:00:00 3.3 3 Norte 10 Nordeste 0 -- -- 91
2020-01-10 09:00:00 2.8 4 Norte 10 Norte 0 -- -- 92
2020-01-10 08:00:00 3 4 Norte 9 Noroeste 0 -- -- 95
2020-01-10 07:00:00 2.5 2 Noroeste 6 Noroeste 0 -- -- 96
2020-01-10 06:00:00 2.5 2 Sur 4 Sudoeste 0 -- -- 96
2020-01-10 05:00:00 2.4 0 Calma 5 Sudoeste 0 -- -- 96
2020-01-10 04:00:00 2.3 2 Sudoeste 6 Sur 0 -- -- 95
2020-01-10 03:00:00 2.5 0 Calma 5 Nordeste 0 -- -- 96
2020-01-10 02:00:00 2.4 0 Calma 5 Sur 0 -- -- 95
2020-01-10 01:00:00 2.5 2 Sur 7 Sur 0 -- -- 94
2020-01-10 00:00:00 3.4 2 Sur 5 Sudoeste 0 -- -- 93
2020-01-09 23:00:00 4.3 0 Calma 3 Oeste 0 -- -- 92
2020-01-09 22:00:00 4.9 0 Calma 4 Sudoeste 0 -- -- 92
2020-01-09 21:00:00 5.2 0 Calma 5 Sur 0 -- -- 91
2020-01-09 20:00:00 5.7 2 Sur 8 Sur 0 -- -- 89
2020-01-09 19:00:00 6.7 4 Sur 8 Sudoeste 0 -- -- 85
2020-01-09 18:00:00 8.3 2 Oeste 10 Sur 0 -- -- 79
2020-01-09 17:00:00 9.1 6 Sudoeste 12 Sur 0 -- -- 76
2020-01-09 16:00:00 9.2 3 Sudoeste 9 Oeste 0 -- -- 75
2020-01-09 15:00:00 8.9 4 Sudoeste 10 Sur 0 -- -- 76
2020-01-09 14:00:00 7.9 5 Sur 9 Sur 0 -- -- 84
2020-01-09 13:00:00 5.8 0 Calma 8 Sudeste 0 -- -- 91
2020-01-09 12:00:00 4.7 4 Sudeste 10 Sur 0 -- -- 98
2020-01-09 11:00:00 3.8 3 Sudeste 10 Sur 0 -- -- 99
2020-01-09 10:00:00 3 3 Sudeste 9 Nordeste 0 -- -- 99
2020-01-09 09:00:00 2.2 3 Sudeste 12 Este 0 -- -- 99
2020-01-09 08:00:00 1.7 3 Sudeste 10 Sudeste 0 -- -- 97
2020-01-09 07:00:00 2 5 Sudeste 18 Este 0 -- -- 93
2020-01-09 06:00:00 3 5 Sudeste 18 Este 0 -- -- 92
2020-01-09 05:00:00 3.3 6 Sudeste 16 Sudeste 0 -- -- 92
2020-01-09 04:00:00 3.5 4 Sudeste 15 Este 0 -- -- 92
2020-01-09 03:00:00 3.9 5 Sudeste 19 Sudeste 0 -- -- 91
2020-01-09 02:00:00 4.6 5 Sudeste 19 Este 0 -- -- 90
2020-01-09 01:00:00 5 4 Sudeste 15 Sudeste 0 -- -- 90
2020-01-09 00:00:00 5.5 4 Sudeste 16 Sudeste 0 -- -- 89
2020-01-08 23:00:00 6 4 Sudeste 18 Sudeste 0 -- -- 88
2020-01-08 22:00:00 6.7 5 Sudeste 17 Este 0 -- -- 88
2020-01-08 21:00:00 8 6 Sudeste 18 Este 0 -- -- 82
2020-01-08 20:00:00 9 5 Sudeste 14 Este 0 -- -- 69
2020-01-08 19:00:00 9.5 0 Calma 6 Este 0 -- -- 63
2020-01-08 18:00:00 10.9 0 Calma 6 Este 0 -- -- 55
2020-01-08 17:00:00 12 0 Calma 10 Este 0 -- -- 52
2020-01-08 16:00:00 12.3 4 Sudeste 11 Sudeste 0 -- -- 50
2020-01-08 15:00:00 11.2 2 Este 6 Sur 0 -- -- 65
2020-01-08 14:00:00 9.9 3 Sudeste 6 Este 0 -- -- 69
2020-01-08 13:00:00 8.5 2 Sudoeste 5 Sudoeste 0 -- -- 71
2020-01-08 12:00:00 7.7 2 Sur 5 Noroeste 0 -- -- 71
2020-01-08 11:00:00 4.2 0 Calma 5 Sur 0 -- -- 87
2020-01-08 10:00:00 1.3 0 Calma 3 Sudoeste 0 -- -- 97
2020-01-08 09:00:00 -0.4 3 Nordeste 6 Nordeste 0 -- -- 95
2020-01-08 08:00:00 -0.9 0 Calma 4 Sudoeste 0 -- -- 94
2020-01-08 07:00:00 -0.3 0 Calma 3 Sudoeste 0 -- -- 94
2020-01-08 06:00:00 0.3 0 Calma 3 Nordeste 0 -- -- 95
2020-01-08 05:00:00 0.5 0 Calma 6 Noroeste 0 -- -- 95
2020-01-08 04:00:00 0.5 2 Noroeste 6 Noroeste 0 -- -- 95
2020-01-08 03:00:00 0.8 0 Calma 2 Norte 0 -- -- 93
2020-01-08 02:00:00 1.5 0 Calma 2 Sudoeste 0 -- -- 93
2020-01-08 01:00:00 2.2 0 Calma 3 Sudoeste 0 -- -- 91
2020-01-08 00:00:00 3 0 Calma 0 Calma 0 -- -- 91
2020-01-07 23:00:00 3.9 0 Calma 4 Norte 0 -- -- 89
2020-01-07 22:00:00 4.8 0 Calma 4 Noroeste 0 -- -- 87
2020-01-07 21:00:00 5.7 0 Calma 2 Norte 0 -- -- 86
2020-01-07 20:00:00 7.1 0 Calma 3 Oeste 0 -- -- 81
2020-01-07 19:00:00 8.9 0 Calma 4 Oeste 0 -- -- 77
2020-01-07 18:00:00 11.1 0 Calma 6 Norte 0 -- -- 69
2020-01-07 17:00:00 12.8 3 Oeste 9 Noroeste 0 -- -- 57
2020-01-07 16:00:00 12.9 4 Noroeste 9 Oeste 0 -- -- 58
2020-01-07 15:00:00 11.7 4 Noroeste 9 Noroeste 0 -- -- 64
2020-01-07 14:00:00 10.1 4 Noroeste 9 Oeste 0 -- -- 71
2020-01-07 13:00:00 8.3 2 Noroeste 6 Noroeste 0 -- -- 77
2020-01-07 12:00:00 6.3 3 Noroeste 8 Oeste 0 -- -- 84
2020-01-07 11:00:00 4 2 Noroeste 5 Noroeste 0 -- -- 86
2020-01-07 10:00:00 1.1 0 Calma 4 Oeste 0 -- -- 98
2020-01-07 09:00:00 -0.7 0 Calma 4 Nordeste 0 -- -- 96
2020-01-07 08:00:00 -0.9 0 Calma 4 Norte 0 -- -- 96
2020-01-07 07:00:00 -0.5 0 Calma 4 Norte 0 -- -- 95
2020-01-07 06:00:00 0 0 Calma 4 Norte 0 -- -- 94
2020-01-07 05:00:00 0.3 0 Calma 4 Norte 0 -- -- 94
2020-01-07 04:00:00 0.6 0 Calma 5 Norte 0 -- -- 94
2020-01-07 03:00:00 0.8 0 Calma 4 Norte 0 -- -- 94
2020-01-07 02:00:00 1.2 0 Calma 4 Noroeste 0 -- -- 93
2020-01-07 01:00:00 1.9 0 Calma 4 Noroeste 0 -- -- 92
2020-01-07 00:00:00 2.5 0 Calma 2 Sudoeste 0 -- -- 90
2020-01-06 23:00:00 3.6 0 Calma 4 Norte 0 -- -- 88
2020-01-06 22:00:00 4 0 Calma 5 Nordeste 0 -- -- 87
2020-01-06 21:00:00 4.6 0 Calma 0 Calma 0 -- -- 87
2020-01-06 20:00:00 5.8 0 Calma 2 Sur 0 -- -- 83
2020-01-06 19:00:00 7.2 0 Calma 3 Sudoeste 0 -- -- 79
2020-01-06 18:00:00 9.2 2 Sudoeste 6 Noroeste 0 -- -- 72
2020-01-06 17:00:00 10.2 3 Noroeste 6 Noroeste 0 -- -- 67
2020-01-06 16:00:00 9.9 3 Norte 8 Norte 0 -- -- 62
2020-01-06 15:00:00 8.9 4 Sur 8 Sur 0 -- -- 68
2020-01-06 14:00:00 8.2 2 Oeste 9 Sur 0 -- -- 71
2020-01-06 13:00:00 6.8 0 Calma 5 Sudeste 0 -- -- 74
2020-01-06 12:00:00 6.2 0 Calma 7 Sur 0 -- -- 78
2020-01-06 11:00:00 4.2 3 Sur 6 Sudoeste 0 -- -- 83
2020-01-06 10:00:00 0.3 2 Norte 4 Noroeste 0 -- -- 94